Time;durP1;ratioP1;P1;durP2;ratioP2;P2;SDS_P1;SDS_P2;PMS_P1;PMS_P2;Temp;Humidity;BMP_temperature;BMP_pressure;BME280_temperature;BME280_humidity;BME280_pressure;Samples;Min_cycle;Max_cycle;Signal;HPM_P1;HPM_P2
2021/11/11 00:01:45;;;;;;;28.83;16.40;;;5.30;99.90;;;;;;5012020;28;20044;-60
2021/11/11 00:04:11;;;;;;;28.52;15.80;;;5.30;99.90;;;;;;5011862;28;20045;-60
2021/11/11 00:06:38;;;;;;;33.33;19.60;;;5.40;99.90;;;;;;5011936;28;20033;-62
2021/11/11 00:09:05;;;;;;;31.08;19.17;;;5.50;99.90;;;;;;5011723;28;20022;-60
2021/11/11 00:11:31;;;;;;;33.13;20.38;;;5.40;99.90;;;;;;5011898;28;20026;-61
2021/11/11 00:13:57;;;;;;;34.63;21.92;;;5.40;99.90;;;;;;5011238;28;20594;-60
2021/11/11 00:16:22;;;;;;;32.17;21.45;;;5.40;99.90;;;;;;5011669;28;20073;-61
2021/11/11 00:18:48;;;;;;;35.25;21.38;;;5.40;99.90;;;;;;5009905;28;20026;-60
2021/11/11 00:21:14;;;;;;;36.35;21.48;;;5.40;99.90;;;;;;5011435;28;20474;-60
2021/11/11 00:23:40;;;;;;;32.83;19.95;;;5.40;99.90;;;;;;5011354;28;20030;-61
2021/11/11 00:26:06;;;;;;;31.25;19.92;;;5.40;99.90;;;;;;5011622;28;20022;-61
2021/11/11 00:28:31;;;;;;;28.10;17.65;;;5.50;99.90;;;;;;5011338;28;20040;-60
2021/11/11 00:30:57;;;;;;;29.92;18.17;;;5.60;99.90;;;;;;4988437;28;20491;-60
2021/11/11 00:33:22;;;;;;;35.22;18.85;;;5.50;99.90;;;;;;5011388;28;20113;-60
2021/11/11 00:35:48;;;;;;;30.65;19.05;;;5.60;99.90;;;;;;5011056;28;20022;-60
2021/11/11 00:38:14;;;;;;;32.95;20.35;;;5.60;99.90;;;;;;5011158;28;20547;-61
2021/11/11 00:40:40;;;;;;;35.50;21.75;;;5.60;99.90;;;;;;5010918;28;20037;-61
2021/11/11 00:43:05;;;;;;;44.17;24.65;;;5.60;99.90;;;;;;5010545;28;20026;-61
2021/11/11 00:45:32;;;;;;;44.97;27.67;;;5.60;99.90;;;;;;5008861;28;20068;-60
2021/11/11 00:47:57;;;;;;;48.13;29.45;;;5.50;99.90;;;;;;5010928;28;20030;-61
2021/11/11 00:50:26;;;;;;;54.95;31.52;;;5.50;99.90;;;;;;5009876;28;20041;-60
2021/11/11 00:52:52;;;;;;;52.45;29.35;;;5.50;99.90;;;;;;5011086;28;20025;-60
2021/11/11 00:55:18;;;;;;;58.05;30.98;;;5.50;99.90;;;;;;5010911;28;20570;-60
2021/11/11 00:57:44;;;;;;;44.65;26.38;;;5.50;99.90;;;;;;5011220;28;20029;-60
2021/11/11 01:00:12;;;;;;;42.38;24.40;;;5.50;99.90;;;;;;5011030;28;20413;-60
2021/11/11 01:02:38;;;;;;;39.10;23.10;;;5.60;99.90;;;;;;5010731;28;20026;-60
2021/11/11 01:05:06;;;;;;;36.45;22.42;;;5.60;99.90;;;;;;4996480;28;20406;-60
2021/11/11 01:07:32;;;;;;;44.15;23.58;;;5.60;99.90;;;;;;4991247;28;20022;-60
2021/11/11 01:09:57;;;;;;;41.97;22.85;;;5.70;99.90;;;;;;4991119;28;20038;-60
2021/11/11 01:12:23;;;;;;;35.97;21.63;;;5.70;99.90;;;;;;4991282;28;20034;-60
2021/11/11 01:14:49;;;;;;;32.28;19.35;;;5.70;99.90;;;;;;4991228;28;20026;-60
2021/11/11 01:17:14;;;;;;;28.85;16.55;;;5.70;99.90;;;;;;4991560;28;20031;-60
2021/11/11 01:19:40;;;;;;;35.95;20.58;;;5.80;99.90;;;;;;4990710;28;20034;-60
2021/11/11 01:22:06;;;;;;;36.03;20.33;;;5.80;99.90;;;;;;4991343;28;20092;-60
2021/11/11 01:24:32;;;;;;;31.95;19.35;;;5.80;99.90;;;;;;4991190;28;20080;-60
2021/11/11 01:26:58;;;;;;;34.35;19.42;;;5.80;99.90;;;;;;4990906;28;20045;-60
2021/11/11 01:29:24;;;;;;;35.50;20.05;;;5.90;99.90;;;;;;4991248;28;20022;-60
2021/11/11 01:31:50;;;;;;;34.25;22.27;;;5.80;99.90;;;;;;4991116;28;20022;-60
2021/11/11 01:34:15;;;;;;;37.40;21.38;;;5.80;99.90;;;;;;4990916;28;20382;-60
2021/11/11 01:36:41;;;;;;;31.75;19.27;;;5.80;99.90;;;;;;4990954;28;20041;-60
2021/11/11 01:39:06;;;;;;;34.92;21.92;;;5.80;99.90;;;;;;4991303;28;20054;-60
2021/11/11 01:41:33;;;;;;;33.75;19.80;;;5.80;99.90;;;;;;4990925;28;20505;-60
2021/11/11 01:43:59;;;;;;;28.88;17.52;;;5.80;99.90;;;;;;4990757;28;20550;-60
2021/11/11 01:46:26;;;;;;;32.95;20.15;;;5.90;99.90;;;;;;4990877;28;20023;-60
2021/11/11 01:48:51;;;;;;;30.42;18.75;;;5.90;99.90;;;;;;4993528;28;20038;-60
2021/11/11 01:51:18;;;;;;;25.23;15.82;;;5.90;99.90;;;;;;4995354;28;20033;-60
2021/11/11 01:53:44;;;;;;;30.90;20.17;;;5.90;99.90;;;;;;4993676;28;20123;-60
2021/11/11 01:56:10;;;;;;;38.20;23.13;;;6.00;99.90;;;;;;4994829;28;20113;-60
2021/11/11 01:58:36;;;;;;;33.83;21.13;;;5.90;99.90;;;;;;4994730;28;20031;-60
2021/11/11 02:01:02;;;;;;;39.08;20.50;;;5.90;99.90;;;;;;4994326;28;20121;-60
2021/11/11 02:03:28;;;;;;;40.00;24.20;;;6.00;99.90;;;;;;4994416;28;20026;-60
2021/11/11 02:05:53;;;;;;;41.60;23.48;;;5.90;99.90;;;;;;4994545;28;20046;-60
2021/11/11 02:08:19;;;;;;;42.00;24.25;;;5.90;99.90;;;;;;4976745;28;20101;-61
2021/11/11 02:10:45;;;;;;;43.33;26.10;;;5.90;99.90;;;;;;4994537;28;20490;-60
2021/11/11 02:13:11;;;;;;;39.17;24.50;;;5.90;99.90;;;;;;4994585;28;20474;-60
2021/11/11 02:15:37;;;;;;;47.08;27.27;;;5.90;99.90;;;;;;4994448;28;20034;-60
2021/11/11 02:18:05;;;;;;;51.15;30.23;;;5.80;99.90;;;;;;4994143;28;20034;-60
2021/11/11 02:20:34;;;;;;;41.05;26.83;;;5.80;99.90;;;;;;4994470;28;20493;-60
2021/11/11 02:23:02;;;;;;;45.55;27.48;;;5.80;99.90;;;;;;4994267;28;20030;-60
2021/11/11 02:25:28;;;;;;;49.22;28.17;;;5.80;99.90;;;;;;4994194;28;20109;-60
2021/11/11 02:28:01;;;;;;;54.28;30.00;;;5.80;99.90;;;;;;4994285;28;20537;-60
2021/11/11 02:30:29;;;;;;;52.85;29.73;;;5.80;99.90;;;;;;4993673;28;20121;-60
2021/11/11 02:32:55;;;;;;;53.65;29.52;;;5.80;99.90;;;;;;4993236;28;20085;-60
2021/11/11 02:35:22;;;;;;;51.50;28.70;;;5.90;99.90;;;;;;4994212;28;20126;-60
2021/11/11 02:37:47;;;;;;;46.03;26.27;;;5.90;99.90;;;;;;4993790;28;20077;-60
2021/11/11 02:40:14;;;;;;;45.53;26.35;;;5.90;99.90;;;;;;4992367;28;20509;-60
2021/11/11 02:42:42;;;;;;;41.72;24.90;;;5.90;99.90;;;;;;4985149;28;20026;-60
2021/11/11 02:45:10;;;;;;;40.42;24.38;;;6.00;99.90;;;;;;4991921;28;20023;-60
2021/11/11 02:47:36;;;;;;;37.55;21.60;;;6.00;99.90;;;;;;4994101;28;20034;-60
2021/11/11 02:50:04;;;;;;;30.17;18.00;;;6.00;99.90;;;;;;4993738;28;20030;-60
2021/11/11 02:52:29;;;;;;;43.20;24.30;;;6.10;99.90;;;;;;4976275;28;20375;-60
2021/11/11 02:54:55;;;;;;;55.20;30.77;;;6.20;99.90;;;;;;4993869;28;20041;-60
2021/11/11 02:57:27;;;;;;;45.85;28.08;;;6.10;99.90;;;;;;4993490;28;20490;-60
2021/11/11 02:59:56;;;;;;;51.08;29.73;;;6.10;99.90;;;;;;4992098;28;20390;-60
2021/11/11 03:02:23;;;;;;;47.33;28.95;;;6.10;99.90;;;;;;4993566;28;20037;-60
2021/11/11 03:04:49;;;;;;;51.63;28.88;;;6.10;99.90;;;;;;5002879;28;20050;-60
2021/11/11 03:07:15;;;;;;;47.85;28.20;;;6.10;99.90;;;;;;5013204;28;20049;-60
2021/11/11 03:09:43;;;;;;;43.92;27.48;;;6.00;99.90;;;;;;5005800;28;20028;-60
2021/11/11 03:12:09;;;;;;;47.95;27.95;;;6.10;99.90;;;;;;4995610;28;20028;-60
2021/11/11 03:14:35;;;;;;;40.85;25.10;;;6.10;99.90;;;;;;5012958;28;20025;-60
2021/11/11 03:17:02;;;;;;;51.75;27.33;;;6.10;99.90;;;;;;5012537;28;20386;-60
2021/11/11 03:19:27;;;;;;;52.53;28.92;;;6.10;99.90;;;;;;5011803;28;20026;-60
2021/11/11 03:21:53;;;;;;;55.15;30.15;;;6.10;99.90;;;;;;5006771;28;20033;-60
2021/11/11 03:24:18;;;;;;;54.70;30.63;;;6.10;99.90;;;;;;4995262;28;20440;-60
2021/11/11 03:26:44;;;;;;;43.38;26.77;;;6.10;99.90;;;;;;5005248;28;20036;-60
2021/11/11 03:29:09;;;;;;;40.60;25.23;;;6.10;99.90;;;;;;5013185;28;20474;-60
2021/11/11 03:31:35;;;;;;;43.25;24.60;;;6.10;99.90;;;;;;5013008;28;20478;-60
2021/11/11 03:34:01;;;;;;;42.78;27.08;;;6.10;99.90;;;;;;5012320;28;20033;-60
2021/11/11 03:36:26;;;;;;;42.35;26.40;;;6.10;99.90;;;;;;5012623;28;20073;-60
2021/11/11 03:38:52;;;;;;;52.42;30.02;;;6.10;99.90;;;;;;5012997;28;20478;-60
2021/11/11 03:41:17;;;;;;;50.38;29.17;;;6.10;99.90;;;;;;4994869;28;20386;-60
2021/11/11 03:43:43;;;;;;;58.20;33.03;;;6.10;99.90;;;;;;5012180;28;20030;-61
2021/11/11 03:46:11;;;;;;;45.92;28.35;;;6.10;99.90;;;;;;4993902;28;20062;-60
2021/11/11 03:48:37;;;;;;;53.08;28.73;;;6.10;99.90;;;;;;5012241;28;20022;-60
2021/11/11 03:51:03;;;;;;;48.97;28.73;;;6.10;99.90;;;;;;4994591;28;20144;-60
2021/11/11 03:53:59;;;;;;;45.85;26.58;;;6.10;99.90;;;;;;4990250;28;20505;-60
2021/11/11 03:56:25;;;;;;;48.55;29.35;;;6.10;99.90;;;;;;5004289;28;20025;-60
2021/11/11 03:58:50;;;;;;;46.83;28.38;;;6.10;99.90;;;;;;5012075;28;20112;-60
2021/11/11 04:01:17;;;;;;;48.53;27.10;;;6.10;99.90;;;;;;5012404;28;20025;-60
2021/11/11 04:03:43;;;;;;;40.83;24.73;;;6.10;99.90;;;;;;4994087;28;20030;-60
2021/11/11 04:06:09;;;;;;;46.35;25.90;;;6.20;99.90;;;;;;5012143;28;20032;-60
2021/11/11 04:08:34;;;;;;;44.15;25.83;;;6.20;99.90;;;;;;5011919;28;20084;-60
2021/11/11 04:11:02;;;;;;;38.88;23.80;;;6.20;99.90;;;;;;5011280;28;20052;-61
2021/11/11 04:13:28;;;;;;;37.50;23.65;;;6.20;99.90;;;;;;5011969;28;20102;-60
2021/11/11 04:15:55;;;;;;;44.53;25.42;;;6.20;99.90;;;;;;5012314;28;20022;-60
2021/11/11 04:18:20;;;;;;;46.53;24.63;;;6.20;99.90;;;;;;4997208;28;20030;-60
2021/11/11 04:20:46;;;;;;;42.17;24.85;;;6.20;99.90;;;;;;5011677;28;20474;-60
2021/11/11 04:23:11;;;;;;;35.42;22.80;;;6.10;99.90;;;;;;5011543;28;20456;-60
2021/11/11 04:25:54;;;;;;;35.97;21.75;;;6.10;99.90;;;;;;5011612;28;20034;-60
2021/11/11 04:28:34;;;;;;;36.53;21.02;;;6.10;99.90;;;;;;5010468;28;20021;-60
2021/11/11 04:31:05;;;;;;;35.47;21.70;;;6.20;99.90;;;;;;5010806;28;20129;-60
2021/11/11 04:33:31;;;;;;;34.38;19.58;;;6.20;99.90;;;;;;5011322;28;20044;-60
2021/11/11 04:36:00;;;;;;;35.53;20.80;;;6.20;99.90;;;;;;5011731;28;20545;-60
2021/11/11 04:38:43;;;;;;;36.17;19.80;;;6.20;99.90;;;;;;5008371;28;20022;-60
2021/11/11 04:41:39;;;;;;;31.15;19.70;;;6.20;99.90;;;;;;5007622;28;20061;-60
2021/11/11 04:44:26;;;;;;;35.92;21.77;;;6.20;99.90;;;;;;4993664;28;20022;-60
2021/11/11 04:49:57;;;;;;;41.13;22.98;;;6.20;99.90;;;;;;5010890;28;20025;-60
2021/11/11 04:52:29;;;;;;;43.85;23.58;;;6.20;99.90;;;;;;5003663;28;20050;-60
2021/11/11 05:00:57;;;;;;;47.35;25.92;;;6.10;99.90;;;;;;5003378;28;20033;-60
2021/11/11 05:06:01;;;;;;;46.50;26.65;;;6.00;99.90;;;;;;4994721;28;20053;-60
2021/11/11 05:08:28;;;;;;;44.08;26.40;;;6.00;99.90;;;;;;5011635;28;20018;-60
2021/11/11 05:10:54;;;;;;;44.45;25.08;;;6.00;99.90;;;;;;5009376;28;20021;-60
2021/11/11 05:13:21;;;;;;;47.63;26.25;;;6.00;99.90;;;;;;5010909;28;20037;-60
2021/11/11 05:15:46;;;;;;;43.53;26.33;;;5.90;99.90;;;;;;5011130;28;20022;-60
2021/11/11 05:18:12;;;;;;;42.75;25.85;;;5.90;99.90;;;;;;5010786;28;20041;-60
2021/11/11 05:20:38;;;;;;;38.47;23.95;;;5.90;99.90;;;;;;4993171;28;20477;-60
2021/11/11 05:23:04;;;;;;;41.72;24.10;;;6.00;99.90;;;;;;5010613;28;20470;-60
2021/11/11 05:25:30;;;;;;;47.08;25.60;;;6.00;99.90;;;;;;5010613;28;20022;-60
2021/11/11 05:27:56;;;;;;;42.35;24.58;;;6.00;99.90;;;;;;5010674;28;20044;-60
2021/11/11 05:30:22;;;;;;;44.60;25.23;;;6.00;99.90;;;;;;4992943;28;20037;-60
2021/11/11 05:32:49;;;;;;;45.22;26.50;;;6.00;99.90;;;;;;5010754;28;20041;-60
2021/11/11 05:35:15;;;;;;;46.15;25.35;;;6.00;99.90;;;;;;5010650;28;20064;-60
2021/11/11 05:37:42;;;;;;;37.63;23.75;;;6.00;99.90;;;;;;5010522;28;20061;-60
2021/11/11 05:40:10;;;;;;;43.47;25.13;;;6.00;99.90;;;;;;5010534;28;20030;-60
2021/11/11 05:42:36;;;;;;;44.33;25.60;;;6.00;99.90;;;;;;5010636;28;20072;-60
2021/11/11 05:45:04;;;;;;;41.55;25.08;;;6.00;99.90;;;;;;5004846;28;20030;-60
2021/11/11 05:47:29;;;;;;;45.47;26.60;;;6.00;99.90;;;;;;5009454;28;20489;-60
2021/11/11 05:49:55;;;;;;;42.53;26.30;;;6.00;99.90;;;;;;5010528;28;20076;-60
2021/11/11 05:52:20;;;;;;;47.83;26.90;;;5.90;99.90;;;;;;5010327;28;20034;-60
2021/11/11 05:54:46;;;;;;;42.25;25.05;;;5.90;99.90;;;;;;5010380;28;20026;-60
2021/11/11 05:57:12;;;;;;;43.30;25.40;;;5.90;99.90;;;;;;5010524;28;20026;-60
2021/11/11 05:59:40;;;;;;;41.47;25.52;;;5.90;99.90;;;;;;5009466;28;20045;-60
2021/11/11 06:02:07;;;;;;;44.28;26.17;;;5.90;99.90;;;;;;5008668;28;20470;-60
2021/11/11 06:04:33;;;;;;;43.15;26.58;;;5.90;99.90;;;;;;5010154;28;20056;-60
2021/11/11 06:06:58;;;;;;;41.92;25.58;;;5.80;99.90;;;;;;5010555;28;20104;-60
2021/11/11 06:09:24;;;;;;;40.17;25.85;;;5.80;99.90;;;;;;5009815;28;20106;-60
2021/11/11 06:11:50;;;;;;;48.67;28.10;;;5.80;99.90;;;;;;5010204;28;20037;-60
2021/11/11 06:14:15;;;;;;;43.00;25.33;;;5.80;99.90;;;;;;5009688;28;20545;-60
2021/11/11 06:16:42;;;;;;;46.10;27.95;;;5.80;99.90;;;;;;5010034;28;20120;-60
2021/11/11 06:19:09;;;;;;;44.30;26.58;;;5.80;99.90;;;;;;5010322;28;20030;-60
2021/11/11 06:21:36;;;;;;;41.88;25.52;;;5.80;99.90;;;;;;4992704;28;20030;-60
2021/11/11 06:24:02;;;;;;;42.85;25.80;;;5.80;99.90;;;;;;4992421;28;20026;-60
2021/11/11 06:26:28;;;;;;;38.92;25.02;;;5.80;99.90;;;;;;5010089;28;20029;-60
2021/11/11 06:28:53;;;;;;;45.40;26.67;;;5.80;99.90;;;;;;4993507;28;20477;-60
2021/11/11 06:31:19;;;;;;;40.55;26.25;;;5.80;99.90;;;;;;5011648;28;20037;-60
2021/11/11 06:33:44;;;;;;;47.05;26.20;;;5.70;99.90;;;;;;5012013;28;20122;-60
2021/11/11 06:36:11;;;;;;;45.97;26.10;;;5.80;99.90;;;;;;5015138;28;20470;-60
2021/11/11 06:38:37;;;;;;;41.45;26.02;;;5.70;99.90;;;;;;4997663;28;20064;-60
2021/11/11 06:41:03;;;;;;;42.97;25.88;;;5.70;99.90;;;;;;5015062;28;20470;-60
2021/11/11 06:43:29;;;;;;;43.25;26.00;;;5.70;99.90;;;;;;5015043;28;20099;-60
2021/11/11 06:45:54;;;;;;;43.50;26.77;;;5.60;99.90;;;;;;5014970;28;20466;-60
2021/11/11 06:48:20;;;;;;;43.58;25.75;;;5.60;99.90;;;;;;5014859;28;20025;-60
2021/11/11 06:51:04;;;;;;;46.72;27.65;;;5.60;99.90;;;;;;5015541;28;20109;-60
2021/11/11 06:53:30;;;;;;;41.50;26.58;;;5.60;99.90;;;;;;5013928;28;20070;-60
2021/11/11 06:55:56;;;;;;;48.03;28.05;;;5.60;99.90;;;;;;5016022;28;20033;-60
2021/11/11 06:58:23;;;;;;;48.40;26.95;;;5.50;99.90;;;;;;5014236;28;20532;-60
2021/11/11 07:00:54;;;;;;;42.65;26.13;;;5.50;99.90;;;;;;5014726;28;20473;-60
2021/11/11 07:03:20;;;;;;;41.88;25.50;;;5.50;99.90;;;;;;5006878;28;20056;-60
2021/11/11 07:05:47;;;;;;;50.08;29.20;;;5.40;99.90;;;;;;5014637;28;20041;-59
2021/11/11 07:08:13;;;;;;;44.05;26.85;;;5.40;99.90;;;;;;5005688;28;20030;-60
2021/11/11 07:10:40;;;;;;;45.17;27.65;;;5.40;99.90;;;;;;5006782;28;20401;-60
2021/11/11 07:13:06;;;;;;;48.55;27.55;;;5.30;99.90;;;;;;5014628;28;20068;-60
2021/11/11 07:15:32;;;;;;;52.75;29.23;;;5.30;99.90;;;;;;5014713;28;20497;-60
2021/11/11 07:17:58;;;;;;;51.95;28.13;;;5.30;99.90;;;;;;5009510;28;20062;-60
2021/11/11 07:20:24;;;;;;;45.05;27.67;;;5.20;99.90;;;;;;5012175;28;20045;-60
2021/11/11 07:22:53;;;;;;;40.83;26.05;;;5.20;99.90;;;;;;5014369;28;20390;-60
2021/11/11 07:28:24;;;;;;;45.03;27.15;;;5.20;99.90;;;;;;4951481;29;20039;-60
2021/11/11 07:30:50;;;;;;;40.72;24.60;;;5.20;99.90;;;;;;5004166;28;20045;-60
2021/11/11 07:33:16;;;;;;;42.10;24.88;;;5.10;99.90;;;;;;4996354;28;20478;-60
2021/11/11 07:35:44;;;;;;;43.05;27.95;;;5.20;99.90;;;;;;5013075;28;20033;-60
2021/11/11 07:38:11;;;;;;;44.60;27.95;;;5.20;99.90;;;;;;5012626;28;20045;-60
2021/11/11 07:40:37;;;;;;;41.75;26.70;;;5.10;99.90;;;;;;5014104;28;20065;-60
2021/11/11 07:43:03;;;;;;;43.05;26.17;;;5.20;99.90;;;;;;5013891;28;20474;-60
2021/11/11 07:46:26;;;;;;;42.55;25.98;;;5.20;99.90;;;;;;5012939;28;20433;-60
2021/11/11 07:52:40;;;;;;;45.60;27.17;;;5.20;99.90;;;;;;4933719;29;20043;-61
2021/11/11 07:55:26;;;;;;;55.08;30.23;;;5.20;99.90;;;;;;5011499;28;20041;-59
2021/11/11 07:57:52;;;;;;;44.92;27.45;;;5.30;99.90;;;;;;5013909;28;20038;-60
2021/11/11 08:00:19;;;;;;;42.25;26.85;;;5.30;99.90;;;;;;5013687;28;20156;-59
2021/11/11 08:02:46;;;;;;;45.47;28.30;;;5.30;99.90;;;;;;5007429;28;20029;-60
2021/11/11 08:05:14;;;;;;;46.58;28.98;;;5.40;99.90;;;;;;5013455;28;20050;-60
2021/11/11 08:07:43;;;;;;;47.22;28.30;;;5.40;99.90;;;;;;5001768;28;20479;-60
2021/11/11 08:10:09;;;;;;;46.47;29.20;;;5.40;99.90;;;;;;5013056;28;20022;-60
2021/11/11 08:12:34;;;;;;;52.88;31.85;;;5.40;99.90;;;;;;5013180;28;20029;-60
2021/11/11 08:15:00;;;;;;;49.42;30.85;;;5.40;99.90;;;;;;5010132;28;20498;-60
2021/11/11 08:17:25;;;;;;;50.05;30.83;;;5.40;99.90;;;;;;5006250;28;20056;-60
2021/11/11 08:19:55;;;;;;;48.15;29.80;;;5.40;99.90;;;;;;5011599;28;20117;-61
2021/11/11 08:22:22;;;;;;;45.47;27.98;;;5.40;99.90;;;;;;5012811;28;20619;-60
2021/11/11 08:24:48;;;;;;;46.90;29.58;;;5.50;99.90;;;;;;5012951;28;20029;-60
2021/11/11 08:27:20;;;;;;;52.75;32.25;;;5.50;99.90;;;;;;4995257;28;20036;-60
2021/11/11 08:29:46;;;;;;;56.00;30.73;;;5.50;99.90;;;;;;5011101;28;20500;-60
2021/11/11 08:32:13;;;;;;;53.35;29.70;;;5.50;99.90;;;;;;5013099;28;20026;-60
2021/11/11 08:34:40;;;;;;;50.00;29.92;;;5.60;99.90;;;;;;5012924;28;20087;-60
2021/11/11 08:37:06;;;;;;;46.88;29.33;;;5.60;99.90;;;;;;4995714;28;20524;-60
2021/11/11 08:39:32;;;;;;;48.40;28.13;;;5.70;99.90;;;;;;5012925;28;20030;-60
2021/11/11 08:41:58;;;;;;;46.80;28.27;;;5.80;99.90;;;;;;5012815;28;20103;-60
2021/11/11 08:44:23;;;;;;;43.83;27.98;;;5.90;99.90;;;;;;5012771;28;20030;-60
2021/11/11 08:46:50;;;;;;;50.60;30.38;;;5.90;99.90;;;;;;5012963;28;20108;-60
2021/11/11 08:49:18;;;;;;;46.92;29.30;;;6.00;99.90;;;;;;5012823;28;20025;-60
2021/11/11 08:51:46;;;;;;;53.58;33.65;;;6.00;99.90;;;;;;5012451;28;20048;-60
2021/11/11 08:54:12;;;;;;;58.08;32.92;;;6.00;99.90;;;;;;5012525;28;20026;-59
2021/11/11 08:56:38;;;;;;;50.45;30.50;;;6.00;99.90;;;;;;5012444;28;20440;-60
2021/11/11 08:59:04;;;;;;;50.28;30.15;;;6.00;99.90;;;;;;4995141;28;20029;-60
2021/11/11 09:01:34;;;;;;;53.38;32.10;;;6.00;99.90;;;;;;4999553;28;20520;-60
2021/11/11 09:04:07;;;;;;;49.40;30.27;;;6.10;99.90;;;;;;4994726;28;20069;-60
2021/11/11 09:06:33;;;;;;;54.90;32.97;;;6.10;99.90;;;;;;5012470;28;20030;-60
2021/11/11 09:08:58;;;;;;;60.17;32.45;;;6.20;99.90;;;;;;5012058;28;20033;-59
2021/11/11 09:11:24;;;;;;;51.83;30.98;;;6.20;99.90;;;;;;5010687;28;20033;-60
2021/11/11 09:13:50;;;;;;;41.70;26.83;;;6.20;99.90;;;;;;5011304;28;20474;-60
2021/11/11 09:16:16;;;;;;;42.35;25.83;;;6.30;99.90;;;;;;5007307;28;20042;-60
2021/11/11 09:18:41;;;;;;;45.30;28.85;;;6.40;99.90;;;;;;5009460;28;20559;-60
2021/11/11 09:21:10;;;;;;;45.08;26.67;;;6.40;99.90;;;;;;5008254;28;20036;-60
2021/11/11 09:23:37;;;;;;;54.97;32.00;;;6.50;99.90;;;;;;5012359;28;20497;-62
2021/11/11 09:26:04;;;;;;;52.50;31.45;;;6.60;99.90;;;;;;5011861;28;20398;-60
2021/11/11 09:28:30;;;;;;;46.65;29.25;;;6.60;99.90;;;;;;4994639;28;20021;-61
2021/11/11 09:30:56;;;;;;;46.97;29.25;;;6.70;99.90;;;;;;5012198;28;20028;-61
2021/11/11 09:33:23;;;;;;;46.92;29.38;;;6.70;99.90;;;;;;5012131;28;20025;-61
2021/11/11 09:35:52;;;;;;;55.90;31.42;;;6.80;99.90;;;;;;5012472;28;20193;-61
2021/11/11 09:38:18;;;;;;;45.95;30.17;;;6.90;99.90;;;;;;5012202;28;20060;-61
2021/11/11 09:40:44;;;;;;;52.70;32.78;;;6.90;99.90;;;;;;5011986;28;20040;-61
2021/11/11 09:43:10;;;;;;;54.50;32.63;;;6.90;99.90;;;;;;4994427;28;20018;-61
2021/11/11 09:45:35;;;;;;;52.90;31.10;;;7.00;99.90;;;;;;4994713;28;20065;-61
2021/11/11 09:48:02;;;;;;;50.05;29.70;;;7.00;99.90;;;;;;4994775;28;20028;-61
2021/11/11 09:50:29;;;;;;;47.47;29.13;;;7.10;99.90;;;;;;5011987;28;20466;-61
2021/11/11 09:52:55;;;;;;;45.90;28.42;;;7.10;99.90;;;;;;5012058;28;20037;-61
2021/11/11 10:00:55;;;;;;;55.65;32.05;;;7.30;99.90;;;;;;5012168;28;20032;-61
2021/11/11 10:03:21;;;;;;;54.10;32.97;;;7.30;99.90;;;;;;5011746;28;20022;-61
2021/11/11 10:05:47;;;;;;;57.03;31.40;;;7.30;99.90;;;;;;5011802;28;20142;-61
2021/11/11 10:08:40;;;;;;;52.95;32.58;;;7.30;99.90;;;;;;5011919;28;20556;-61
2021/11/11 10:11:13;;;;;;;55.25;31.98;;;7.50;99.90;;;;;;4997918;28;20030;-61
2021/11/11 10:13:40;;;;;;;53.58;30.70;;;7.50;99.90;;;;;;5013079;28;20394;-61
2021/11/11 10:16:15;;;;;;;54.92;30.55;;;7.50;99.90;;;;;;5013279;28;20037;-61
2021/11/11 10:18:52;;;;;;;50.03;31.50;;;7.60;99.90;;;;;;4981757;28;20054;-61
2021/11/11 10:21:53;;;;;;;;;;;;;;;;;;;;;
2021/11/11 10:24:21;;;;;;;55.13;32.90;;;7.70;99.90;;;;;;5011836;28;20505;-61
2021/11/11 10:27:07;;;;;;;57.63;32.90;;;7.70;99.90;;;;;;5015506;28;20080;-61
2021/11/11 10:29:50;;;;;;;53.95;30.73;;;7.90;99.90;;;;;;4997830;28;20057;-61
2021/11/11 10:32:29;;;;;;;50.63;31.33;;;7.90;99.90;;;;;;4997714;28;20033;-61
2021/11/11 10:35:01;;;;;;;52.70;32.00;;;7.90;99.90;;;;;;5015199;28;20036;-61
2021/11/11 10:37:33;;;;;;;48.38;31.63;;;8.00;99.90;;;;;;5015263;28;20272;-61
2021/11/11 10:40:09;;;;;;;52.20;30.73;;;8.10;99.90;;;;;;5014364;28;20134;-61
2021/11/11 10:42:36;;;;;;;49.72;30.15;;;8.10;99.90;;;;;;5014229;28;20609;-61
2021/11/11 10:45:07;;;;;;;49.05;30.55;;;8.20;99.90;;;;;;5014933;28;20029;-61
2021/11/11 10:47:34;;;;;;;48.22;30.65;;;8.20;99.90;;;;;;5015062;28;20033;-61
2021/11/11 10:50:03;;;;;;;48.80;29.25;;;8.30;99.90;;;;;;5014598;28;20029;-61
2021/11/11 10:52:31;;;;;;;49.33;30.70;;;8.40;99.90;;;;;;5014815;28;20385;-62
2021/11/11 10:55:15;;;;;;;43.80;28.70;;;8.40;99.90;;;;;;5010855;28;20407;-61
2021/11/11 10:58:06;;;;;;;46.50;29.48;;;8.50;99.90;;;;;;4966609;28;20057;-61
2021/11/11 11:00:58;;;;;;;42.70;27.50;;;8.60;99.90;;;;;;5012284;28;20437;-61
2021/11/11 11:03:37;;;;;;;45.33;28.73;;;8.70;99.90;;;;;;5014579;28;20114;-61
2021/11/11 11:06:08;;;;;;;44.53;28.40;;;8.70;99.90;;;;;;4996959;28;20497;-61
2021/11/11 11:08:35;;;;;;;44.08;27.55;;;8.80;99.90;;;;;;5014662;28;20034;-61
2021/11/11 11:11:07;;;;;;;42.13;26.85;;;8.90;99.90;;;;;;4983926;28;20057;-61
2021/11/11 11:13:39;;;;;;;41.35;24.92;;;8.90;99.90;;;;;;4990934;28;20034;-61
2021/11/11 11:16:06;;;;;;;43.17;26.70;;;9.00;99.90;;;;;;5014679;28;20053;-61
2021/11/11 11:18:41;;;;;;;41.33;26.88;;;9.00;99.90;;;;;;5014363;28;20087;-62
2021/11/11 11:21:12;;;;;;;40.78;25.50;;;9.10;99.90;;;;;;5014373;28;20033;-61
2021/11/11 11:23:52;;;;;;;39.55;25.58;;;9.20;99.90;;;;;;5014261;28;20030;-61
2021/11/11 11:32:10;;;;;;;37.15;23.50;;;9.30;99.70;;;;;;5014718;28;20061;-62
2021/11/11 11:35:08;;;;;;;39.30;25.05;;;9.30;99.60;;;;;;4987859;28;20042;-61
2021/11/11 11:37:35;;;;;;;38.25;25.15;;;9.40;99.50;;;;;;5001539;28;20037;-62
2021/11/11 11:40:00;;;;;;;43.55;25.75;;;9.40;99.50;;;;;;5012833;28;20026;-61
2021/11/11 11:42:35;;;;;;;40.38;25.13;;;9.40;99.40;;;;;;5012442;28;20084;-61
2021/11/11 11:45:04;;;;;;;39.45;25.20;;;9.40;99.40;;;;;;5014109;28;20105;-61
2021/11/11 11:50:01;;;;;;;41.65;25.70;;;9.50;99.40;;;;;;4998395;28;20041;-62
2021/11/11 11:52:30;;;;;;;32.78;22.63;;;9.50;99.30;;;;;;4983023;28;20022;-61
2021/11/11 12:00:17;;;;;;;38.88;24.83;;;9.60;99.00;;;;;;5014057;28;20052;-61
2021/11/11 12:05:36;;;;;;;37.97;24.23;;;9.70;98.90;;;;;;4988668;28;20116;-61
2021/11/11 12:38:34;;;;;;;38.00;23.50;;;10.10;97.80;;;;;;5007207;28;20548;-62
2021/11/11 12:41:15;;;;;;;36.63;23.58;;;10.10;97.70;;;;;;5009399;28;20038;-62
2021/11/11 12:43:41;;;;;;;34.25;23.05;;;10.20;97.70;;;;;;5004380;28;20096;-61
2021/11/11 12:46:51;;;;;;;36.13;24.40;;;10.20;97.60;;;;;;5005266;28;20076;-62
2021/11/11 12:49:34;;;;;;;40.85;23.77;;;10.20;97.60;;;;;;4988055;28;20065;-61
2021/11/11 12:52:19;;;;;;;37.55;22.70;;;10.30;97.70;;;;;;5012373;28;20072;-62
2021/11/11 12:55:08;;;;;;;33.70;23.17;;;10.40;97.60;;;;;;5004171;28;20038;-61
2021/11/11 12:57:54;;;;;;;37.95;24.15;;;10.40;97.60;;;;;;5007565;28;20048;-62
2021/11/11 13:00:38;;;;;;;35.38;22.95;;;10.40;97.40;;;;;;5011320;28;20041;-61
2021/11/11 13:03:06;;;;;;;34.85;23.13;;;10.40;97.50;;;;;;4987254;28;20054;-61
2021/11/11 13:05:46;;;;;;;40.70;24.40;;;10.50;97.80;;;;;;4981112;28;20049;-62
2021/11/11 13:08:13;;;;;;;39.53;24.27;;;10.50;97.30;;;;;;5010683;28;20441;-61
2021/11/11 13:11:35;;;;;;;;;;;;;;;;;;;;;
2021/11/11 13:14:18;;;;;;;35.70;23.10;;;10.60;97.10;;;;;;4982377;28;20052;-61
2021/11/11 13:17:09;;;;;;;38.70;23.27;;;10.60;97.50;;;;;;4961592;28;20034;-62
2021/11/11 13:19:38;;;;;;;34.75;24.25;;;10.70;97.20;;;;;;4992913;28;20042;-61
2021/11/11 13:28:48;;;;;;;42.03;25.00;;;10.70;97.00;;;;;;5008206;28;20037;-62
2021/11/11 15:16:17;;;;;;;38.20;26.38;;;10.80;98.10;;;;;;5007914;28;20033;-61
2021/11/11 15:45:18;;;;;;;42.38;26.83;;;10.50;98.40;;;;;;5002622;28;20084;-62
2021/11/11 16:19:54;;;;;;;43.33;29.83;;;10.10;99.50;;;;;;5008853;28;20036;-62
2021/11/11 16:22:58;;;;;;;43.42;29.08;;;10.10;99.60;;;;;;5012052;28;20028;-62
2021/11/11 16:31:21;;;;;;;43.67;29.65;;;9.90;99.70;;;;;;5008264;28;20049;-62
2021/11/11 16:33:48;;;;;;;45.33;32.38;;;10.00;99.90;;;;;;5003668;28;20030;-62
2021/11/11 16:36:14;;;;;;;44.85;29.95;;;9.90;99.90;;;;;;5011422;28;21418;-61
2021/11/11 16:38:50;;;;;;;45.83;29.30;;;9.90;99.90;;;;;;5012969;28;20022;-61
2021/11/11 16:41:36;;;;;;;;;;;;;;;;;;;;;
2021/11/11 16:44:03;;;;;;;44.08;30.70;;;9.90;99.90;;;;;;5013034;28;20052;-61
2021/11/11 16:46:45;;;;;;;45.13;29.60;;;9.90;99.90;;;;;;5011600;28;20534;-61
2021/11/11 16:49:29;;;;;;;45.70;30.40;;;9.90;99.90;;;;;;5011138;28;20053;-61
2021/11/11 16:51:55;;;;;;;43.80;29.15;;;9.90;99.90;;;;;;5013037;28;20026;-62
2021/11/11 16:54:20;;;;;;;44.05;29.65;;;9.90;99.90;;;;;;5012681;28;20084;-61
2021/11/11 16:56:46;;;;;;;43.70;28.67;;;9.90;99.90;;;;;;4995094;28;20061;-62
2021/11/11 16:59:12;;;;;;;44.78;29.90;;;9.90;99.90;;;;;;5011177;28;20073;-62